sensor_id;sensor_type;location;lat;lon;timestamp;P1;durP1;ratioP1;P2;durP2;ratioP2
52734;SDS011;38631;47.572;10.704;2022-12-24T00:01:13;0.80;;;0.40;;
52734;SDS011;38631;47.572;10.704;2022-12-24T00:03:39;1.02;;;0.47;;
52734;SDS011;38631;47.572;10.704;2022-12-24T00:06:05;1.77;;;0.52;;
52734;SDS011;38631;47.572;10.704;2022-12-24T00:08:34;2.35;;;0.60;;
52734;SDS011;38631;47.572;10.704;2022-12-24T00:11:00;0.85;;;0.47;;
52734;SDS011;38631;47.572;10.704;2022-12-24T00:13:25;1.40;;;0.40;;
52734;SDS011;38631;47.572;10.704;2022-12-24T00:15:51;0.95;;;0.45;;
52734;SDS011;38631;47.572;10.704;2022-12-24T00:18:16;2.55;;;0.55;;
52734;SDS011;38631;47.572;10.704;2022-12-24T00:20:45;1.67;;;0.50;;
52734;SDS011;38631;47.572;10.704;2022-12-24T00:23:11;4.38;;;0.47;;
52734;SDS011;38631;47.572;10.704;2022-12-24T00:25:36;0.98;;;0.40;;
52734;SDS011;38631;47.572;10.704;2022-12-24T00:28:02;0.80;;;0.20;;
52734;SDS011;38631;47.572;10.704;2022-12-24T00:30:27;2.00;;;0.30;;
52734;SDS011;38631;47.572;10.704;2022-12-24T00:32:53;1.75;;;0.60;;
52734;SDS011;38631;47.572;10.704;2022-12-24T00:35:18;0.98;;;0.50;;
52734;SDS011;38631;47.572;10.704;2022-12-24T00:37:45;1.73;;;0.82;;
52734;SDS011;38631;47.572;10.704;2022-12-24T00:40:12;1.23;;;0.22;;
52734;SDS011;38631;47.572;10.704;2022-12-24T00:42:37;0.73;;;0.40;;
52734;SDS011;38631;47.572;10.704;2022-12-24T00:45:03;0.93;;;0.32;;
52734;SDS011;38631;47.572;10.704;2022-12-24T00:47:28;1.05;;;0.50;;
52734;SDS011;38631;47.572;10.704;2022-12-24T00:49:54;0.75;;;0.45;;
52734;SDS011;38631;47.572;10.704;2022-12-24T00:52:19;2.00;;;0.45;;
52734;SDS011;38631;47.572;10.704;2022-12-24T00:54:45;0.75;;;0.35;;
52734;SDS011;38631;47.572;10.704;2022-12-24T00:57:10;1.88;;;0.68;;
52734;SDS011;38631;47.572;10.704;2022-12-24T00:59:35;1.40;;;0.50;;
52734;SDS011;38631;47.572;10.704;2022-12-24T01:02:01;0.40;;;0.20;;
52734;SDS011;38631;47.572;10.704;2022-12-24T01:04:26;1.70;;;0.80;;
52734;SDS011;38631;47.572;10.704;2022-12-24T01:07:10;2.60;;;0.35;;
52734;SDS011;38631;47.572;10.704;2022-12-24T01:09:35;3.17;;;0.77;;
52734;SDS011;38631;47.572;10.704;2022-12-24T01:12:00;1.30;;;0.43;;
52734;SDS011;38631;47.572;10.704;2022-12-24T01:14:26;1.33;;;0.40;;
52734;SDS011;38631;47.572;10.704;2022-12-24T01:16:51;1.27;;;0.70;;
52734;SDS011;38631;47.572;10.704;2022-12-24T01:19:17;1.00;;;0.40;;
52734;SDS011;38631;47.572;10.704;2022-12-24T01:21:42;4.22;;;0.50;;
52734;SDS011;38631;47.572;10.704;2022-12-24T01:24:10;0.93;;;0.40;;
52734;SDS011;38631;47.572;10.704;2022-12-24T01:26:39;1.10;;;0.70;;
52734;SDS011;38631;47.572;10.704;2022-12-24T01:29:04;0.80;;;0.50;;
52734;SDS011;38631;47.572;10.704;2022-12-24T01:31:30;1.60;;;0.80;;
52734;SDS011;38631;47.572;10.704;2022-12-24T01:33:55;1.80;;;0.63;;
52734;SDS011;38631;47.572;10.704;2022-12-24T01:36:20;3.03;;;0.60;;
52734;SDS011;38631;47.572;10.704;2022-12-24T01:38:46;1.20;;;0.52;;
52734;SDS011;38631;47.572;10.704;2022-12-24T01:41:15;1.67;;;0.45;;
52734;SDS011;38631;47.572;10.704;2022-12-24T01:46:42;1.30;;;0.55;;
52734;SDS011;38631;47.572;10.704;2022-12-24T01:49:08;2.42;;;0.43;;
52734;SDS011;38631;47.572;10.704;2022-12-24T01:51:39;1.88;;;0.60;;
52734;SDS011;38631;47.572;10.704;2022-12-24T01:54:30;1.95;;;0.40;;
52734;SDS011;38631;47.572;10.704;2022-12-24T01:57:04;1.75;;;0.40;;
52734;SDS011;38631;47.572;10.704;2022-12-24T01:59:35;1.00;;;0.47;;
52734;SDS011;38631;47.572;10.704;2022-12-24T02:02:02;2.75;;;0.47;;
52734;SDS011;38631;47.572;10.704;2022-12-24T02:07:17;1.65;;;0.60;;
52734;SDS011;38631;47.572;10.704;2022-12-24T02:09:42;1.20;;;0.35;;
52734;SDS011;38631;47.572;10.704;2022-12-24T02:12:08;1.65;;;0.43;;
52734;SDS011;38631;47.572;10.704;2022-12-24T02:14:33;1.20;;;0.32;;
52734;SDS011;38631;47.572;10.704;2022-12-24T02:17:16;1.02;;;0.70;;
52734;SDS011;38631;47.572;10.704;2022-12-24T02:30:47;1.85;;;0.50;;
52734;SDS011;38631;47.572;10.704;2022-12-24T02:33:25;0.73;;;0.52;;
52734;SDS011;38631;47.572;10.704;2022-12-24T02:36:18;2.03;;;0.50;;
52734;SDS011;38631;47.572;10.704;2022-12-24T02:38:55;0.82;;;0.30;;
52734;SDS011;38631;47.572;10.704;2022-12-24T02:41:27;1.92;;;0.40;;
52734;SDS011;38631;47.572;10.704;2022-12-24T02:44:15;1.55;;;0.70;;
52734;SDS011;38631;47.572;10.704;2022-12-24T02:46:43;2.05;;;0.40;;
52734;SDS011;38631;47.572;10.704;2022-12-24T02:49:09;1.20;;;0.50;;
52734;SDS011;38631;47.572;10.704;2022-12-24T02:51:34;1.38;;;0.52;;
52734;SDS011;38631;47.572;10.704;2022-12-24T02:53:59;1.45;;;0.50;;
52734;SDS011;38631;47.572;10.704;2022-12-24T02:56:31;2.05;;;0.40;;
52734;SDS011;38631;47.572;10.704;2022-12-24T02:59:11;3.20;;;0.55;;
52734;SDS011;38631;47.572;10.704;2022-12-24T03:07:05;1.23;;;0.50;;
52734;SDS011;38631;47.572;10.704;2022-12-24T03:12:29;0.60;;;0.20;;
52734;SDS011;38631;47.572;10.704;2022-12-24T03:14:58;2.50;;;0.30;;
52734;SDS011;38631;47.572;10.704;2022-12-24T03:17:24;0.60;;;0.20;;
52734;SDS011;38631;47.572;10.704;2022-12-24T03:19:50;0.22;;;0.10;;
52734;SDS011;38631;47.572;10.704;2022-12-24T03:22:18;0.20;;;0.10;;
52734;SDS011;38631;47.572;10.704;2022-12-24T03:24:44;0.40;;;0.20;;
52734;SDS011;38631;47.572;10.704;2022-12-24T03:27:09;0.63;;;0.20;;
52734;SDS011;38631;47.572;10.704;2022-12-24T03:29:38;0.98;;;0.30;;
52734;SDS011;38631;47.572;10.704;2022-12-24T03:32:04;0.77;;;0.28;;
52734;SDS011;38631;47.572;10.704;2022-12-24T03:34:29;1.70;;;0.10;;
52734;SDS011;38631;47.572;10.704;2022-12-24T03:36:55;0.47;;;0.20;;
52734;SDS011;38631;47.572;10.704;2022-12-24T03:39:20;0.25;;;0.20;;
52734;SDS011;38631;47.572;10.704;2022-12-24T03:41:46;0.20;;;0.10;;
52734;SDS011;38631;47.572;10.704;2022-12-24T03:44:12;0.45;;;0.10;;
52734;SDS011;38631;47.572;10.704;2022-12-24T03:46:37;2.38;;;0.20;;
52734;SDS011;38631;47.572;10.704;2022-12-24T03:49:03;0.85;;;0.20;;
52734;SDS011;38631;47.572;10.704;2022-12-24T03:51:28;0.40;;;0.20;;
52734;SDS011;38631;47.572;10.704;2022-12-24T03:53:55;0.20;;;0.20;;
52734;SDS011;38631;47.572;10.704;2022-12-24T03:56:21;0.30;;;0.22;;
52734;SDS011;38631;47.572;10.704;2022-12-24T03:58:47;0.47;;;0.22;;
52734;SDS011;38631;47.572;10.704;2022-12-24T04:01:12;0.43;;;0.22;;
52734;SDS011;38631;47.572;10.704;2022-12-24T04:03:38;0.25;;;0.20;;
52734;SDS011;38631;47.572;10.704;2022-12-24T04:06:04;0.45;;;0.25;;
52734;SDS011;38631;47.572;10.704;2022-12-24T04:08:33;0.28;;;0.10;;
52734;SDS011;38631;47.572;10.704;2022-12-24T04:10:58;0.50;;;0.25;;
52734;SDS011;38631;47.572;10.704;2022-12-24T04:13:24;1.02;;;0.40;;
52734;SDS011;38631;47.572;10.704;2022-12-24T04:15:59;1.13;;;0.22;;
52734;SDS011;38631;47.572;10.704;2022-12-24T04:18:25;0.30;;;0.20;;
52734;SDS011;38631;47.572;10.704;2022-12-24T04:20:52;0.45;;;0.22;;
52734;SDS011;38631;47.572;10.704;2022-12-24T04:23:17;0.30;;;0.30;;
52734;SDS011;38631;47.572;10.704;2022-12-24T04:25:43;0.35;;;0.25;;
52734;SDS011;38631;47.572;10.704;2022-12-24T04:28:08;0.60;;;0.20;;
52734;SDS011;38631;47.572;10.704;2022-12-24T04:30:33;0.22;;;0.13;;
52734;SDS011;38631;47.572;10.704;2022-12-24T04:32:59;0.38;;;0.20;;
52734;SDS011;38631;47.572;10.704;2022-12-24T04:35:24;0.47;;;0.20;;
52734;SDS011;38631;47.572;10.704;2022-12-24T04:37:49;0.15;;;0.10;;
52734;SDS011;38631;47.572;10.704;2022-12-24T04:40:15;0.10;;;0.10;;
52734;SDS011;38631;47.572;10.704;2022-12-24T04:42:40;0.40;;;0.20;;
52734;SDS011;38631;47.572;10.704;2022-12-24T04:45:06;0.20;;;0.20;;
52734;SDS011;38631;47.572;10.704;2022-12-24T04:47:31;0.43;;;0.32;;
52734;SDS011;38631;47.572;10.704;2022-12-24T04:49:57;0.65;;;0.20;;
52734;SDS011;38631;47.572;10.704;2022-12-24T04:52:23;0.90;;;0.10;;
52734;SDS011;38631;47.572;10.704;2022-12-24T04:54:48;0.50;;;0.10;;
52734;SDS011;38631;47.572;10.704;2022-12-24T04:57:13;0.55;;;0.20;;
52734;SDS011;38631;47.572;10.704;2022-12-24T04:59:39;0.10;;;0.10;;
52734;SDS011;38631;47.572;10.704;2022-12-24T05:02:04;0.10;;;0.10;;
52734;SDS011;38631;47.572;10.704;2022-12-24T05:04:29;1.17;;;0.10;;
52734;SDS011;38631;47.572;10.704;2022-12-24T05:06:55;0.17;;;0.10;;
52734;SDS011;38631;47.572;10.704;2022-12-24T05:09:21;0.32;;;0.10;;
52734;SDS011;38631;47.572;10.704;2022-12-24T05:11:46;0.20;;;0.10;;
52734;SDS011;38631;47.572;10.704;2022-12-24T05:14:11;0.10;;;0.10;;
52734;SDS011;38631;47.572;10.704;2022-12-24T05:16:37;0.32;;;0.10;;
52734;SDS011;38631;47.572;10.704;2022-12-24T05:19:02;0.47;;;0.20;;
52734;SDS011;38631;47.572;10.704;2022-12-24T05:21:28;0.20;;;0.20;;
52734;SDS011;38631;47.572;10.704;2022-12-24T05:23:53;0.30;;;0.15;;
52734;SDS011;38631;47.572;10.704;2022-12-24T05:29:12;0.32;;;0.20;;
52734;SDS011;38631;47.572;10.704;2022-12-24T05:31:38;0.10;;;0.10;;
52734;SDS011;38631;47.572;10.704;2022-12-24T05:34:04;0.57;;;0.10;;
52734;SDS011;38631;47.572;10.704;2022-12-24T05:36:30;0.73;;;0.35;;
52734;SDS011;38631;47.572;10.704;2022-12-24T05:38:55;0.85;;;0.28;;
52734;SDS011;38631;47.572;10.704;2022-12-24T05:41:21;0.30;;;0.30;;
52734;SDS011;38631;47.572;10.704;2022-12-24T05:43:46;0.13;;;0.10;;
52734;SDS011;38631;47.572;10.704;2022-12-24T05:46:13;0.22;;;0.20;;
52734;SDS011;38631;47.572;10.704;2022-12-24T05:48:39;0.40;;;0.20;;
52734;SDS011;38631;47.572;10.704;2022-12-24T05:51:06;0.70;;;0.20;;
52734;SDS011;38631;47.572;10.704;2022-12-24T05:53:33;0.75;;;0.10;;
52734;SDS011;38631;47.572;10.704;2022-12-24T05:56:05;0.40;;;0.20;;
52734;SDS011;38631;47.572;10.704;2022-12-24T05:58:32;0.77;;;0.10;;
52734;SDS011;38631;47.572;10.704;2022-12-24T06:00:57;0.57;;;0.20;;
52734;SDS011;38631;47.572;10.704;2022-12-24T06:03:24;1.05;;;0.30;;
52734;SDS011;38631;47.572;10.704;2022-12-24T06:05:56;0.63;;;0.28;;
52734;SDS011;38631;47.572;10.704;2022-12-24T06:08:26;0.30;;;0.20;;
52734;SDS011;38631;47.572;10.704;2022-12-24T06:10:59;0.95;;;0.28;;
52734;SDS011;38631;47.572;10.704;2022-12-24T06:13:25;2.40;;;0.30;;
52734;SDS011;38631;47.572;10.704;2022-12-24T06:15:55;0.80;;;0.50;;
52734;SDS011;38631;47.572;10.704;2022-12-24T06:20:53;0.55;;;0.40;;
52734;SDS011;38631;47.572;10.704;2022-12-24T06:23:20;0.60;;;0.40;;
52734;SDS011;38631;47.572;10.704;2022-12-24T06:25:46;0.45;;;0.28;;
52734;SDS011;38631;47.572;10.704;2022-12-24T06:28:12;1.38;;;0.30;;
52734;SDS011;38631;47.572;10.704;2022-12-24T06:30:38;0.80;;;0.30;;
52734;SDS011;38631;47.572;10.704;2022-12-24T06:33:03;0.52;;;0.30;;
52734;SDS011;38631;47.572;10.704;2022-12-24T06:35:31;0.60;;;0.40;;
52734;SDS011;38631;47.572;10.704;2022-12-24T06:37:58;0.65;;;0.22;;
52734;SDS011;38631;47.572;10.704;2022-12-24T06:40:24;1.23;;;0.60;;
52734;SDS011;38631;47.572;10.704;2022-12-24T06:42:50;0.95;;;0.63;;
52734;SDS011;38631;47.572;10.704;2022-12-24T06:45:15;2.58;;;0.55;;
52734;SDS011;38631;47.572;10.704;2022-12-24T06:47:41;1.15;;;0.50;;
52734;SDS011;38631;47.572;10.704;2022-12-24T06:50:06;1.98;;;0.60;;
52734;SDS011;38631;47.572;10.704;2022-12-24T06:52:32;1.30;;;0.80;;
52734;SDS011;38631;47.572;10.704;2022-12-24T06:54:57;0.82;;;0.40;;
52734;SDS011;38631;47.572;10.704;2022-12-24T06:57:23;0.80;;;0.45;;
52734;SDS011;38631;47.572;10.704;2022-12-24T06:59:48;0.65;;;0.35;;
52734;SDS011;38631;47.572;10.704;2022-12-24T07:02:13;0.85;;;0.47;;
52734;SDS011;38631;47.572;10.704;2022-12-24T07:04:39;1.15;;;0.43;;
52734;SDS011;38631;47.572;10.704;2022-12-24T07:07:04;0.77;;;0.40;;
52734;SDS011;38631;47.572;10.704;2022-12-24T07:09:30;1.52;;;0.70;;
52734;SDS011;38631;47.572;10.704;2022-12-24T07:11:55;2.75;;;0.60;;
52734;SDS011;38631;47.572;10.704;2022-12-24T07:14:21;0.73;;;0.55;;
52734;SDS011;38631;47.572;10.704;2022-12-24T07:16:46;1.60;;;0.60;;
52734;SDS011;38631;47.572;10.704;2022-12-24T07:19:11;0.98;;;0.60;;
52734;SDS011;38631;47.572;10.704;2022-12-24T07:21:37;2.28;;;0.90;;
52734;SDS011;38631;47.572;10.704;2022-12-24T07:24:03;0.57;;;0.30;;
52734;SDS011;38631;47.572;10.704;2022-12-24T07:26:28;0.85;;;0.20;;
52734;SDS011;38631;47.572;10.704;2022-12-24T07:28:53;2.28;;;0.52;;
52734;SDS011;38631;47.572;10.704;2022-12-24T07:31:19;0.30;;;0.22;;
52734;SDS011;38631;47.572;10.704;2022-12-24T07:33:44;1.10;;;0.70;;
52734;SDS011;38631;47.572;10.704;2022-12-24T07:36:12;2.05;;;0.50;;
52734;SDS011;38631;47.572;10.704;2022-12-24T07:38:43;0.80;;;0.45;;
52734;SDS011;38631;47.572;10.704;2022-12-24T07:41:08;1.45;;;0.40;;
52734;SDS011;38631;47.572;10.704;2022-12-24T07:43:34;0.70;;;0.60;;
52734;SDS011;38631;47.572;10.704;2022-12-24T07:45:59;1.08;;;0.70;;
52734;SDS011;38631;47.572;10.704;2022-12-24T07:48:26;4.93;;;0.90;;
52734;SDS011;38631;47.572;10.704;2022-12-24T07:50:52;4.05;;;2.53;;
52734;SDS011;38631;47.572;10.704;2022-12-24T07:53:19;1.85;;;0.70;;
52734;SDS011;38631;47.572;10.704;2022-12-24T07:55:44;1.85;;;0.60;;
52734;SDS011;38631;47.572;10.704;2022-12-24T07:58:10;1.02;;;0.50;;
52734;SDS011;38631;47.572;10.704;2022-12-24T08:00:35;3.22;;;0.77;;
52734;SDS011;38631;47.572;10.704;2022-12-24T08:03:01;3.50;;;0.80;;
52734;SDS011;38631;47.572;10.704;2022-12-24T08:05:26;2.63;;;0.80;;
52734;SDS011;38631;47.572;10.704;2022-12-24T08:07:52;1.38;;;0.70;;
52734;SDS011;38631;47.572;10.704;2022-12-24T08:10:18;0.68;;;0.40;;
52734;SDS011;38631;47.572;10.704;2022-12-24T08:12:43;0.75;;;0.40;;
52734;SDS011;38631;47.572;10.704;2022-12-24T08:15:09;1.00;;;0.40;;
52734;SDS011;38631;47.572;10.704;2022-12-24T08:17:35;0.88;;;0.40;;
52734;SDS011;38631;47.572;10.704;2022-12-24T08:20:01;1.40;;;0.40;;
52734;SDS011;38631;47.572;10.704;2022-12-24T08:22:26;1.42;;;0.50;;
52734;SDS011;38631;47.572;10.704;2022-12-24T08:24:52;1.00;;;0.30;;
52734;SDS011;38631;47.572;10.704;2022-12-24T08:27:17;0.50;;;0.30;;
52734;SDS011;38631;47.572;10.704;2022-12-24T08:29:42;0.68;;;0.30;;
52734;SDS011;38631;47.572;10.704;2022-12-24T08:32:08;0.60;;;0.38;;
52734;SDS011;38631;47.572;10.704;2022-12-24T08:34:33;0.30;;;0.30;;
52734;SDS011;38631;47.572;10.704;2022-12-24T08:36:59;1.25;;;0.50;;
52734;SDS011;38631;47.572;10.704;2022-12-24T08:39:24;0.63;;;0.30;;
52734;SDS011;38631;47.572;10.704;2022-12-24T08:41:50;0.20;;;0.10;;
52734;SDS011;38631;47.572;10.704;2022-12-24T08:44:15;0.52;;;0.25;;
52734;SDS011;38631;47.572;10.704;2022-12-24T08:46:41;0.50;;;0.20;;
52734;SDS011;38631;47.572;10.704;2022-12-24T08:49:06;0.95;;;0.20;;
52734;SDS011;38631;47.572;10.704;2022-12-24T08:51:31;1.20;;;0.40;;
52734;SDS011;38631;47.572;10.704;2022-12-24T08:53:57;0.57;;;0.40;;
52734;SDS011;38631;47.572;10.704;2022-12-24T08:56:22;0.60;;;0.30;;
52734;SDS011;38631;47.572;10.704;2022-12-24T08:58:47;1.30;;;0.20;;
52734;SDS011;38631;47.572;10.704;2022-12-24T09:01:18;0.43;;;0.20;;
52734;SDS011;38631;47.572;10.704;2022-12-24T09:03:44;0.70;;;0.38;;
52734;SDS011;38631;47.572;10.704;2022-12-24T09:06:09;0.50;;;0.30;;
52734;SDS011;38631;47.572;10.704;2022-12-24T09:08:35;0.50;;;0.30;;
52734;SDS011;38631;47.572;10.704;2022-12-24T09:11:02;0.77;;;0.40;;
52734;SDS011;38631;47.572;10.704;2022-12-24T09:13:31;0.57;;;0.28;;
52734;SDS011;38631;47.572;10.704;2022-12-24T09:15:56;0.40;;;0.20;;
52734;SDS011;38631;47.572;10.704;2022-12-24T09:18:22;0.90;;;0.50;;
52734;SDS011;38631;47.572;10.704;2022-12-24T09:20:47;1.83;;;0.40;;
52734;SDS011;38631;47.572;10.704;2022-12-24T09:23:13;1.15;;;0.30;;
52734;SDS011;38631;47.572;10.704;2022-12-24T09:25:41;0.93;;;0.40;;
52734;SDS011;38631;47.572;10.704;2022-12-24T09:28:07;0.55;;;0.40;;
52734;SDS011;38631;47.572;10.704;2022-12-24T09:30:33;0.70;;;0.40;;
52734;SDS011;38631;47.572;10.704;2022-12-24T09:32:58;0.82;;;0.60;;
52734;SDS011;38631;47.572;10.704;2022-12-24T09:35:23;1.10;;;0.63;;
52734;SDS011;38631;47.572;10.704;2022-12-24T09:37:48;0.85;;;0.40;;
52734;SDS011;38631;47.572;10.704;2022-12-24T09:40:28;1.10;;;0.63;;
52734;SDS011;38631;47.572;10.704;2022-12-24T09:43:02;0.75;;;0.40;;
52734;SDS011;38631;47.572;10.704;2022-12-24T09:45:36;1.17;;;0.57;;
52734;SDS011;38631;47.572;10.704;2022-12-24T09:48:10;0.95;;;0.50;;
52734;SDS011;38631;47.572;10.704;2022-12-24T09:50:53;0.47;;;0.28;;
52734;SDS011;38631;47.572;10.704;2022-12-24T09:53:33;0.77;;;0.40;;
52734;SDS011;38631;47.572;10.704;2022-12-24T09:56:15;0.93;;;0.60;;
52734;SDS011;38631;47.572;10.704;2022-12-24T09:58:53;1.90;;;1.00;;
52734;SDS011;38631;47.572;10.704;2022-12-24T10:01:21;2.10;;;1.23;;
52734;SDS011;38631;47.572;10.704;2022-12-24T10:03:46;2.70;;;1.95;;
52734;SDS011;38631;47.572;10.704;2022-12-24T10:06:15;1.10;;;0.95;;
52734;SDS011;38631;47.572;10.704;2022-12-24T10:09:30;1.42;;;0.80;;
52734;SDS011;38631;47.572;10.704;2022-12-24T10:11:53;2.83;;;1.40;;
52734;SDS011;38631;47.572;10.704;2022-12-24T10:14:44;3.60;;;3.30;;
52734;SDS011;38631;47.572;10.704;2022-12-24T10:27:57;4.88;;;2.90;;
52734;SDS011;38631;47.572;10.704;2022-12-24T10:30:26;1.40;;;0.90;;
52734;SDS011;38631;47.572;10.704;2022-12-24T10:32:52;1.40;;;1.00;;
52734;SDS011;38631;47.572;10.704;2022-12-24T10:35:22;2.88;;;2.67;;
52734;SDS011;38631;47.572;10.704;2022-12-24T10:37:51;2.80;;;2.47;;
52734;SDS011;38631;47.572;10.704;2022-12-24T10:40:39;1.23;;;1.08;;
52734;SDS011;38631;47.572;10.704;2022-12-24T10:43:12;0.20;;;0.13;;
52734;SDS011;38631;47.572;10.704;2022-12-24T10:45:40;0.57;;;0.40;;
52734;SDS011;38631;47.572;10.704;2022-12-24T10:48:08;0.28;;;0.20;;
52734;SDS011;38631;47.572;10.704;2022-12-24T10:50:48;0.60;;;0.38;;
52734;SDS011;38631;47.572;10.704;2022-12-24T10:53:20;1.15;;;0.40;;
52734;SDS011;38631;47.572;10.704;2022-12-24T10:55:59;0.50;;;0.40;;
52734;SDS011;38631;47.572;10.704;2022-12-24T10:58:29;0.52;;;0.30;;
52734;SDS011;38631;47.572;10.704;2022-12-24T11:00:55;1.02;;;0.60;;
52734;SDS011;38631;47.572;10.704;2022-12-24T11:03:21;0.98;;;0.45;;
52734;SDS011;38631;47.572;10.704;2022-12-24T11:05:57;0.90;;;0.52;;
52734;SDS011;38631;47.572;10.704;2022-12-24T11:08:45;1.02;;;0.40;;
52734;SDS011;38631;47.572;10.704;2022-12-24T11:11:15;1.08;;;0.65;;
52734;SDS011;38631;47.572;10.704;2022-12-24T11:13:43;0.50;;;0.40;;
52734;SDS011;38631;47.572;10.704;2022-12-24T11:18:57;0.80;;;0.50;;
52734;SDS011;38631;47.572;10.704;2022-12-24T11:21:28;1.08;;;0.63;;
52734;SDS011;38631;47.572;10.704;2022-12-24T11:24:04;0.70;;;0.45;;
52734;SDS011;38631;47.572;10.704;2022-12-24T11:26:31;1.05;;;0.60;;
52734;SDS011;38631;47.572;10.704;2022-12-24T11:29:14;0.80;;;0.50;;
52734;SDS011;38631;47.572;10.704;2022-12-24T11:31:50;1.00;;;0.60;;
52734;SDS011;38631;47.572;10.704;2022-12-24T11:34:29;1.80;;;0.82;;
52734;SDS011;38631;47.572;10.704;2022-12-24T11:39:55;1.75;;;0.95;;
52734;SDS011;38631;47.572;10.704;2022-12-24T11:44:55;2.08;;;1.20;;
52734;SDS011;38631;47.572;10.704;2022-12-24T11:47:34;2.08;;;1.10;;
52734;SDS011;38631;47.572;10.704;2022-12-24T11:52:46;1.58;;;1.15;;
52734;SDS011;38631;47.572;10.704;2022-12-24T12:00:43;1.52;;;1.00;;
52734;SDS011;38631;47.572;10.704;2022-12-24T12:05:54;2.53;;;1.52;;
52734;SDS011;38631;47.572;10.704;2022-12-24T12:08:22;1.73;;;1.30;;
52734;SDS011;38631;47.572;10.704;2022-12-24T12:10:49;2.53;;;1.50;;
52734;SDS011;38631;47.572;10.704;2022-12-24T12:13:22;2.33;;;1.63;;
52734;SDS011;38631;47.572;10.704;2022-12-24T12:16:17;1.92;;;1.60;;
52734;SDS011;38631;47.572;10.704;2022-12-24T12:18:46;2.33;;;1.50;;
52734;SDS011;38631;47.572;10.704;2022-12-24T12:21:18;2.35;;;1.40;;
52734;SDS011;38631;47.572;10.704;2022-12-24T12:23:50;2.15;;;1.38;;
52734;SDS011;38631;47.572;10.704;2022-12-24T12:26:23;2.38;;;1.88;;
52734;SDS011;38631;47.572;10.704;2022-12-24T12:28:58;2.03;;;1.63;;
52734;SDS011;38631;47.572;10.704;2022-12-24T12:31:41;3.20;;;1.90;;
52734;SDS011;38631;47.572;10.704;2022-12-24T12:34:45;2.75;;;1.55;;
52734;SDS011;38631;47.572;10.704;2022-12-24T12:37:19;2.30;;;1.75;;
52734;SDS011;38631;47.572;10.704;2022-12-24T12:39:54;1.95;;;1.65;;
52734;SDS011;38631;47.572;10.704;2022-12-24T12:47:59;1.75;;;1.17;;
52734;SDS011;38631;47.572;10.704;2022-12-24T12:56:21;1.70;;;1.20;;
52734;SDS011;38631;47.572;10.704;2022-12-24T12:59:11;2.40;;;1.27;;
52734;SDS011;38631;47.572;10.704;2022-12-24T13:01:52;1.88;;;1.40;;
52734;SDS011;38631;47.572;10.704;2022-12-24T13:21:27;1.70;;;1.40;;
52734;SDS011;38631;47.572;10.704;2022-12-24T13:24:12;4.03;;;1.92;;
52734;SDS011;38631;47.572;10.704;2022-12-24T13:29:40;3.53;;;2.13;;
52734;SDS011;38631;47.572;10.704;2022-12-24T13:34:47;3.42;;;2.15;;
52734;SDS011;38631;47.572;10.704;2022-12-24T13:37:19;3.30;;;2.15;;
52734;SDS011;38631;47.572;10.704;2022-12-24T13:47:57;3.28;;;2.45;;
52734;SDS011;38631;47.572;10.704;2022-12-24T13:50:29;4.95;;;2.50;;
52734;SDS011;38631;47.572;10.704;2022-12-24T13:53:04;3.47;;;2.50;;
52734;SDS011;38631;47.572;10.704;2022-12-24T13:55:48;3.70;;;2.80;;
52734;SDS011;38631;47.572;10.704;2022-12-24T13:58:16;5.78;;;4.72;;
52734;SDS011;38631;47.572;10.704;2022-12-24T14:00:50;8.55;;;5.22;;
52734;SDS011;38631;47.572;10.704;2022-12-24T14:03:25;7.00;;;4.85;;
52734;SDS011;38631;47.572;10.704;2022-12-24T14:06:01;5.05;;;4.28;;
52734;SDS011;38631;47.572;10.704;2022-12-24T14:08:34;5.47;;;3.90;;
52734;SDS011;38631;47.572;10.704;2022-12-24T14:11:05;6.90;;;3.90;;
52734;SDS011;38631;47.572;10.704;2022-12-24T14:16:02;3.65;;;3.10;;
52734;SDS011;38631;47.572;10.704;2022-12-24T14:18:41;3.80;;;2.88;;
52734;SDS011;38631;47.572;10.704;2022-12-24T14:21:32;9.93;;;7.50;;
52734;SDS011;38631;47.572;10.704;2022-12-24T14:24:01;10.68;;;8.50;;
52734;SDS011;38631;47.572;10.704;2022-12-24T14:31:48;4.90;;;4.10;;
52734;SDS011;38631;47.572;10.704;2022-12-24T14:34:15;5.43;;;3.38;;
52734;SDS011;38631;47.572;10.704;2022-12-24T14:36:41;5.80;;;3.20;;
52734;SDS011;38631;47.572;10.704;2022-12-24T14:39:07;6.05;;;3.60;;
52734;SDS011;38631;47.572;10.704;2022-12-24T14:44:39;28.85;;;19.00;;
52734;SDS011;38631;47.572;10.704;2022-12-24T14:50:25;27.70;;;18.30;;
52734;SDS011;38631;47.572;10.704;2022-12-24T14:58:15;14.90;;;11.00;;
52734;SDS011;38631;47.572;10.704;2022-12-24T15:01:17;14.00;;;10.52;;
52734;SDS011;38631;47.572;10.704;2022-12-24T15:03:45;7.00;;;5.80;;
52734;SDS011;38631;47.572;10.704;2022-12-24T15:06:23;4.97;;;4.43;;
52734;SDS011;38631;47.572;10.704;2022-12-24T15:08:48;5.95;;;3.38;;
52734;SDS011;38631;47.572;10.704;2022-12-24T15:11:18;3.83;;;3.03;;
52734;SDS011;38631;47.572;10.704;2022-12-24T15:13:47;4.45;;;3.17;;
52734;SDS011;38631;47.572;10.704;2022-12-24T15:16:18;4.28;;;3.88;;
52734;SDS011;38631;47.572;10.704;2022-12-24T15:18:50;4.15;;;3.65;;
52734;SDS011;38631;47.572;10.704;2022-12-24T15:21:25;4.88;;;3.75;;
52734;SDS011;38631;47.572;10.704;2022-12-24T15:23:59;4.22;;;3.63;;
52734;SDS011;38631;47.572;10.704;2022-12-24T15:26:29;4.95;;;3.22;;
52734;SDS011;38631;47.572;10.704;2022-12-24T15:28:57;5.82;;;5.22;;
52734;SDS011;38631;47.572;10.704;2022-12-24T15:31:24;7.60;;;5.47;;
52734;SDS011;38631;47.572;10.704;2022-12-24T15:33:52;7.57;;;6.13;;
52734;SDS011;38631;47.572;10.704;2022-12-24T15:38:50;11.98;;;8.73;;
52734;SDS011;38631;47.572;10.704;2022-12-24T15:41:20;11.60;;;7.82;;
52734;SDS011;38631;47.572;10.704;2022-12-24T15:43:47;12.95;;;7.90;;
52734;SDS011;38631;47.572;10.704;2022-12-24T15:46:18;23.38;;;17.13;;
52734;SDS011;38631;47.572;10.704;2022-12-24T15:48:47;9.45;;;5.93;;
52734;SDS011;38631;47.572;10.704;2022-12-24T15:51:19;7.35;;;6.20;;
52734;SDS011;38631;47.572;10.704;2022-12-24T15:53:47;13.10;;;9.68;;
52734;SDS011;38631;47.572;10.704;2022-12-24T15:56:29;11.52;;;9.18;;
52734;SDS011;38631;47.572;10.704;2022-12-24T15:59:10;3.47;;;2.38;;
52734;SDS011;38631;47.572;10.704;2022-12-24T16:01:48;3.67;;;1.85;;
52734;SDS011;38631;47.572;10.704;2022-12-24T16:04:15;4.63;;;3.40;;
52734;SDS011;38631;47.572;10.704;2022-12-24T16:06:53;4.28;;;2.83;;
52734;SDS011;38631;47.572;10.704;2022-12-24T16:09:29;7.10;;;5.65;;
52734;SDS011;38631;47.572;10.704;2022-12-24T16:12:27;5.10;;;3.72;;
52734;SDS011;38631;47.572;10.704;2022-12-24T16:14:57;8.95;;;5.40;;
52734;SDS011;38631;47.572;10.704;2022-12-24T16:17:24;8.50;;;6.13;;
52734;SDS011;38631;47.572;10.704;2022-12-24T16:19:54;7.25;;;4.75;;
52734;SDS011;38631;47.572;10.704;2022-12-24T16:22:22;6.22;;;4.82;;
52734;SDS011;38631;47.572;10.704;2022-12-24T16:24:59;10.23;;;7.05;;
52734;SDS011;38631;47.572;10.704;2022-12-24T16:27:25;9.45;;;5.90;;
52734;SDS011;38631;47.572;10.704;2022-12-24T16:29:51;12.75;;;9.45;;
52734;SDS011;38631;47.572;10.704;2022-12-24T16:34:54;14.82;;;8.82;;
52734;SDS011;38631;47.572;10.704;2022-12-24T16:37:19;11.25;;;8.40;;
52734;SDS011;38631;47.572;10.704;2022-12-24T16:39:44;11.48;;;7.95;;
52734;SDS011;38631;47.572;10.704;2022-12-24T16:42:10;12.38;;;8.27;;
52734;SDS011;38631;47.572;10.704;2022-12-24T16:44:54;15.38;;;10.57;;
52734;SDS011;38631;47.572;10.704;2022-12-24T16:47:21;11.23;;;7.57;;
52734;SDS011;38631;47.572;10.704;2022-12-24T16:49:49;7.75;;;5.22;;
52734;SDS011;38631;47.572;10.704;2022-12-24T16:52:26;8.65;;;5.50;;